Herron, Michigan
Current Conditions -  °F | °C
As of 11:54 AM on Saturday 25 Oct 2014 (Local Time) from KAPN Reporting Station
Clear Clear  
Wind Chill: 62°   Ceiling: Unl
Heat Index: 62°   Visibility: 10mi
Dew Point: 41°   Wind: 16mph
Humidity: 46%   Direction: 290°WNW
Pressure: 29.64"   Gusts: 28mph
Location:  45.02°N, 83.65°W
Report Text: KAPN 251554Z AUTO 29014G24KT 10SM CLR 17/05 A2964 RMK AO2 SLP041 T01670050
Loading
Personal Weather Stations






























Interactive Weather Map
Tropical Storm Tracking
New forecast layout! Learn more

10-Day Weather Forecast

Advertisements
Track Severe Weather on mobile